sensor_id;sensor_type;location;lat;lon;timestamp;temperature;humidity
42085;DHT22;27746;52.228;20.890;2024-01-16T09:46:44;-0.90;99.90
42085;DHT22;27746;52.228;20.890;2024-01-16T09:49:12;17.80;51.00
42085;DHT22;27746;52.228;20.890;2024-01-16T09:51:42;17.70;48.00
42085;DHT22;27746;52.228;20.890;2024-01-16T09:54:11;18.10;49.20
42085;DHT22;27746;52.228;20.890;2024-01-16T10:43:34;18.30;47.80
42085;DHT22;27746;52.228;20.890;2024-01-16T21:51:52;20.90;41.90
42085;DHT22;27746;52.228;20.890;2024-01-16T22:26:23;-5.10;94.70
42085;DHT22;27746;52.228;20.890;2024-01-16T22:28:50;-5.50;94.90
42085;DHT22;27746;52.228;20.890;2024-01-16T22:31:18;-5.50;94.90
42085;DHT22;27746;52.228;20.890;2024-01-16T22:33:44;-5.50;94.90
42085;DHT22;27746;52.228;20.890;2024-01-16T22:36:11;-5.50;94.80
42085;DHT22;27746;52.228;20.890;2024-01-16T22:38:39;-5.40;94.70
42085;DHT22;27746;52.228;20.890;2024-01-16T22:41:06;-5.40;94.70
42085;DHT22;27746;52.228;20.890;2024-01-16T22:43:36;-5.40;94.70
42085;DHT22;27746;52.228;20.890;2024-01-16T22:46:03;-5.40;94.70
42085;DHT22;27746;52.228;20.890;2024-01-16T22:48:30;-5.40;94.70
42085;DHT22;27746;52.228;20.890;2024-01-16T22:50:57;-5.40;94.70
42085;DHT22;27746;52.228;20.890;2024-01-16T22:53:24;-5.30;94.70
42085;DHT22;27746;52.228;20.890;2024-01-16T22:55:51;-5.30;94.70
42085;DHT22;27746;52.228;20.890;2024-01-16T22:58:18;-5.30;94.70
42085;DHT22;27746;52.228;20.890;2024-01-16T23:00:46;-5.20;94.70
42085;DHT22;27746;52.228;20.890;2024-01-16T23:03:18;-5.20;94.70
42085;DHT22;27746;52.228;20.890;2024-01-16T23:05:47;-5.20;94.70
42085;DHT22;27746;52.228;20.890;2024-01-16T23:08:15;-5.20;94.70
42085;DHT22;27746;52.228;20.890;2024-01-16T23:10:44;-5.20;94.70
42085;DHT22;27746;52.228;20.890;2024-01-16T23:13:11;-5.10;94.60
42085;DHT22;27746;52.228;20.890;2024-01-16T23:15:38;-5.10;94.70
42085;DHT22;27746;52.228;20.890;2024-01-16T23:18:07;-5.10;94.60
42085;DHT22;27746;52.228;20.890;2024-01-16T23:20:33;-5.10;94.70
42085;DHT22;27746;52.228;20.890;2024-01-16T23:23:00;-5.10;94.80
42085;DHT22;27746;52.228;20.890;2024-01-16T23:25:29;-5.00;94.90
42085;DHT22;27746;52.228;20.890;2024-01-16T23:27:55;-5.00;95.00
42085;DHT22;27746;52.228;20.890;2024-01-16T23:30:22;-5.10;95.10
42085;DHT22;27746;52.228;20.890;2024-01-16T23:32:49;-5.00;95.20
42085;DHT22;27746;52.228;20.890;2024-01-16T23:35:17;-5.00;95.20
42085;DHT22;27746;52.228;20.890;2024-01-16T23:37:44;-5.00;95.30
42085;DHT22;27746;52.228;20.890;2024-01-16T23:40:13;-5.00;95.50
42085;DHT22;27746;52.228;20.890;2024-01-16T23:42:41;-5.00;95.90
42085;DHT22;27746;52.228;20.890;2024-01-16T23:45:09;-4.90;95.90
42085;DHT22;27746;52.228;20.890;2024-01-16T23:47:36;-4.90;95.90
42085;DHT22;27746;52.228;20.890;2024-01-16T23:50:05;-4.90;96.00
42085;DHT22;27746;52.228;20.890;2024-01-16T23:52:33;-4.90;96.20
42085;DHT22;27746;52.228;20.890;2024-01-16T23:55:00;-4.90;96.70
42085;DHT22;27746;52.228;20.890;2024-01-16T23:57:27;-4.80;97.00
42085;DHT22;27746;52.228;20.890;2024-01-16T23:59:54;-4.80;97.10
